Saguache, CO

13:20 MST le 04 décembre 2016 (GMT -0700)
Saguache | | Change Station

Alt. 7825 ft 38.10 °N, 106.17 °W | Updated 11 minutes ago

Clear
Ciel dégagé
34 ° F
Paraît 31 ° F
N
4
Vent Variable Vent de SSO

Aujourd'hui
Haut(e) -- | Bas -- ° F
--% Risque de précip.
Hier
Haut(e) -- | Bas -- ° F
Precip. -- pouce
Pression 30.09 pouce
Visibilité 10.0 Miles terrestres
Nuages Ciel dégagé
Refroidissement éolien 31 ° F
Point de rosée 9 ° F
Humidité 35%
Précipitations 0.00 pouce
Profondeur de la couche neigeuse Non disponible.
7:05 AM 4:44 PM
Lune montante, 25% visible
METAR K04V 042009Z AUTO 20003KT 10SM CLR 01/M13 A3009 RMK AO2
Pression 30.09 pouce
Visibilité 10.0 Miles terrestres
Nuages Ciel dégagé
Refroidissement éolien 31 ° F
Point de rosée 9 ° F
Humidité 35%
Précipitations 0.00 pouce
Profondeur de la couche neigeuse Non disponible.
7:05 AM 4:44 PM
Lune montante, 25% visible
METAR K04V 042009Z AUTO 20003KT 10SM CLR 01/M13 A3009 RMK AO2

10-Day Weather Forecast

Almanac

Astronomie

Dec. 04, 2016 Lever Coucher
Temps réel
Crépuscule civil
Crépuscule nautique
Crépuscule astronomique
Lune
Durée de lumière visible
Longueur du jour
Tomorrow will be .
, % of the Moon is Illuminated

Extrêmes aujourd'hui

State Highs State Lows

Community

WunderPhotos

Upload Photos

1,955,661 Photos téléchargées !

WunderBlog® & News

Nearby

Qualité de l'air

  Qualité de l'air Indice de la qualité de l'air Polluant
Not available.

Épaisseur de neige

Station Depth Altitude

Activité sismique

Ville Distance Mag. Time & Date
Minimum magnitude displayed is 2.5.

Températures des eaux côtières

Lieu Température

Stations

Stations météo à proximité

Emplacement de la station Température Refroidissement éolien Point de rosée Humidité Vent Precip. Alt. Mise à jour Type
                   

Watches & Warnings

There are currently no watches in effect.